createdAt,value
2022-11-05T00:01:42.624Z,63.99
2022-11-05T00:04:08.950Z,63.96
2022-11-05T00:06:35.215Z,63.19
2022-11-05T00:09:01.457Z,63.69
2022-11-05T00:11:27.686Z,63.76
2022-11-05T00:13:53.910Z,63.26
2022-11-05T00:16:20.173Z,63.61
2022-11-05T00:18:46.429Z,63.60
2022-11-05T00:21:12.675Z,63.49
2022-11-05T00:23:38.908Z,63.71
2022-11-05T00:26:05.189Z,63.75
2022-11-05T00:28:31.429Z,63.39
2022-11-05T00:30:57.664Z,62.82
2022-11-05T00:33:24.396Z,62.71
2022-11-05T00:35:50.649Z,62.40
2022-11-05T00:38:16.897Z,62.78
2022-11-05T00:40:43.149Z,63.01
2022-11-05T00:43:09.665Z,63.28
2022-11-05T00:45:36.210Z,63.09
2022-11-05T00:48:02.455Z,63.45
2022-11-05T00:50:28.698Z,63.73
2022-11-05T00:52:54.925Z,63.87
2022-11-05T00:55:21.162Z,63.94
2022-11-05T00:57:47.407Z,63.42
2022-11-05T01:00:13.690Z,63.88
2022-11-05T01:02:40.065Z,63.65
2022-11-05T01:05:06.435Z,63.01
2022-11-05T01:07:32.692Z,63.03
2022-11-05T01:09:58.943Z,63.17
2022-11-05T01:12:25.703Z,63.40
2022-11-05T01:14:53.450Z,62.55
2022-11-05T01:17:19.698Z,63.05
2022-11-05T01:19:45.942Z,62.86
2022-11-05T01:22:12.172Z,63.06
2022-11-05T01:24:38.415Z,62.78
2022-11-05T01:27:04.661Z,63.39
2022-11-05T01:29:30.885Z,63.70
2022-11-05T01:31:57.161Z,63.58
2022-11-05T01:34:23.408Z,63.61
2022-11-05T01:36:49.647Z,64.07
2022-11-05T01:39:16.046Z,63.71
2022-11-05T01:41:42.341Z,64.17
2022-11-05T01:44:08.601Z,63.44
2022-11-05T01:46:36.956Z,64.12
2022-11-05T01:49:03.632Z,63.83
2022-11-05T01:51:32.948Z,63.47
2022-11-05T01:53:59.287Z,63.59
2022-11-05T01:56:25.640Z,64.44
2022-11-05T01:58:51.921Z,63.69
2022-11-05T02:01:18.376Z,63.89
2022-11-05T02:03:44.712Z,63.99
2022-11-05T02:06:10.963Z,64.10
2022-11-05T02:08:37.197Z,64.31
2022-11-05T02:11:03.538Z,64.91
2022-11-05T02:13:29.794Z,64.32
2022-11-05T02:15:56.039Z,64.20
2022-11-05T02:18:22.307Z,63.19
2022-11-05T02:20:52.140Z,62.75
2022-11-05T02:23:18.714Z,62.34
2022-11-05T02:25:44.966Z,62.37
2022-11-05T02:28:11.218Z,62.55
2022-11-05T02:30:37.445Z,62.42
2022-11-05T02:33:03.677Z,61.95
2022-11-05T02:35:29.915Z,62.44
2022-11-05T02:37:56.149Z,61.79
2022-11-05T02:40:22.419Z,62.25
2022-11-05T02:42:48.648Z,62.77
2022-11-05T02:45:14.877Z,62.72
2022-11-05T02:47:41.113Z,62.43
2022-11-05T02:50:07.359Z,62.09
2022-11-05T02:52:33.608Z,62.19
2022-11-05T02:54:59.856Z,62.02
2022-11-05T02:57:26.089Z,62.01
2022-11-05T02:59:52.336Z,62.77
2022-11-05T03:02:18.655Z,62.58
2022-11-05T03:04:44.985Z,62.87
2022-11-05T03:07:11.239Z,63.22
2022-11-05T03:09:37.484Z,63.03
2022-11-05T03:12:03.748Z,63.02
2022-11-05T03:14:29.982Z,62.38
2022-11-05T03:16:56.211Z,62.13
2022-11-05T03:19:22.443Z,62.24
2022-11-05T03:21:48.692Z,61.73
2022-11-05T03:24:14.951Z,61.09
2022-11-05T03:26:41.178Z,61.63
2022-11-05T03:29:07.432Z,62.13
2022-11-05T03:31:33.683Z,61.04
2022-11-05T03:33:59.934Z,61.01
2022-11-05T03:36:26.182Z,60.85
2022-11-05T03:38:52.427Z,61.42
2022-11-05T03:41:18.687Z,60.79
2022-11-05T03:43:44.930Z,61.20
2022-11-05T03:46:11.187Z,61.26
2022-11-05T03:48:37.469Z,61.25
2022-11-05T03:51:03.830Z,61.54
2022-11-05T03:53:30.081Z,60.96
2022-11-05T03:55:56.341Z,60.89
2022-11-05T03:58:22.591Z,61.19
2022-11-05T04:00:48.832Z,60.74
2022-11-05T04:03:15.070Z,61.39
2022-11-05T04:05:41.312Z,61.43
2022-11-05T04:08:12.962Z,60.73
2022-11-05T04:10:40.465Z,60.86
2022-11-05T04:13:06.709Z,61.01
2022-11-05T04:15:32.944Z,61.09
2022-11-05T04:17:59.170Z,61.32
2022-11-05T04:20:25.419Z,61.15
2022-11-05T04:22:51.671Z,61.28
2022-11-05T04:25:17.913Z,62.49
2022-11-05T04:27:44.164Z,62.03
2022-11-05T04:30:10.424Z,62.75
2022-11-05T04:32:36.665Z,62.69
2022-11-05T04:35:02.957Z,62.94
2022-11-05T04:37:29.197Z,62.87
2022-11-05T04:39:55.438Z,62.25
2022-11-05T04:42:21.712Z,61.85
2022-11-05T04:44:47.959Z,62.10
2022-11-05T04:47:14.203Z,62.04
2022-11-05T04:49:40.434Z,62.01
2022-11-05T04:52:06.693Z,62.62
2022-11-05T04:54:33.011Z,62.81
2022-11-05T04:56:59.424Z,62.56
2022-11-05T04:59:25.664Z,62.02
2022-11-05T05:01:51.923Z,61.96
2022-11-05T05:04:18.220Z,62.21
2022-11-05T05:06:44.479Z,61.55
2022-11-05T05:09:10.732Z,61.98
2022-11-05T05:11:36.980Z,61.52
2022-11-05T05:14:03.224Z,61.34
2022-11-05T05:16:29.459Z,61.56
2022-11-05T05:18:55.694Z,61.70
2022-11-05T05:21:21.934Z,62.42
2022-11-05T05:23:48.162Z,62.05
2022-11-05T05:26:14.421Z,62.46
2022-11-05T05:28:40.684Z,62.34
2022-11-05T05:31:06.916Z,63.10
2022-11-05T05:33:33.158Z,62.50
2022-11-05T05:35:59.407Z,62.42
2022-11-05T05:38:25.662Z,62.95
2022-11-05T05:40:51.912Z,63.00
2022-11-05T05:43:18.158Z,62.22
2022-11-05T05:45:44.430Z,62.43
2022-11-05T05:48:10.669Z,62.28
2022-11-05T05:50:36.921Z,62.75
2022-11-05T05:53:03.164Z,62.86
2022-11-05T05:55:29.401Z,63.06
2022-11-05T05:57:55.667Z,62.54
2022-11-05T06:00:21.920Z,62.39
2022-11-05T06:02:48.278Z,62.14
2022-11-05T06:05:14.617Z,62.53
2022-11-05T06:07:40.850Z,62.42
2022-11-05T06:10:07.105Z,62.14
2022-11-05T06:12:33.365Z,62.52
2022-11-05T06:14:59.619Z,62.96
2022-11-05T06:17:25.877Z,63.44
2022-11-05T06:19:52.122Z,63.65
2022-11-05T06:22:18.363Z,63.43
2022-11-05T06:24:44.693Z,63.47
2022-11-05T06:27:10.957Z,63.49
2022-11-05T06:29:37.267Z,63.54
2022-11-05T06:32:03.519Z,63.76
2022-11-05T06:34:29.758Z,63.54
2022-11-05T06:36:56.000Z,63.51
2022-11-05T06:39:22.244Z,63.72
2022-11-05T06:42:16.576Z,63.59
2022-11-05T06:44:34.705Z,63.66
2022-11-05T06:47:00.944Z,63.63
2022-11-05T06:49:27.203Z,63.68
2022-11-05T06:51:53.464Z,63.56
2022-11-05T06:54:19.693Z,62.83
2022-11-05T06:56:45.941Z,63.02
2022-11-05T06:59:12.260Z,63.05
2022-11-05T07:01:38.599Z,62.96
2022-11-05T07:04:04.903Z,63.33
2022-11-05T07:06:36.670Z,62.61
2022-11-05T07:09:03.286Z,63.30
2022-11-05T07:11:29.532Z,63.34
2022-11-05T07:13:55.798Z,63.18
2022-11-05T07:16:22.049Z,62.46
2022-11-05T07:18:48.367Z,62.50
2022-11-05T07:21:14.619Z,63.32
2022-11-05T07:23:40.867Z,63.08
2022-11-05T07:26:07.117Z,62.67
2022-11-05T07:28:33.354Z,62.68
2022-11-05T07:30:59.591Z,62.39
2022-11-05T07:33:25.845Z,61.81
2022-11-05T07:35:52.095Z,62.21
2022-11-05T07:38:18.342Z,62.27
2022-11-05T07:40:44.596Z,61.64
2022-11-05T07:43:11.091Z,61.99
2022-11-05T07:45:37.485Z,61.55
2022-11-05T07:48:03.749Z,61.72
2022-11-05T07:50:29.989Z,61.51
2022-11-05T07:52:56.239Z,61.75
2022-11-05T07:55:22.487Z,61.99
2022-11-05T07:57:48.740Z,61.90
2022-11-05T08:00:15.010Z,61.70
2022-11-05T08:02:41.483Z,62.03
2022-11-05T08:05:07.926Z,62.36
2022-11-05T08:07:34.169Z,61.93
2022-11-05T08:10:00.445Z,62.01
2022-11-05T08:12:26.688Z,61.64
2022-11-05T08:14:52.945Z,61.63
2022-11-05T08:17:19.233Z,61.63
2022-11-05T08:19:45.487Z,61.67
2022-11-05T08:22:11.749Z,61.67
2022-11-05T08:24:38.001Z,61.82
2022-11-05T08:27:04.285Z,61.84
2022-11-05T08:29:30.543Z,61.78
2022-11-05T08:31:56.797Z,62.15
2022-11-05T08:34:23.114Z,61.52
2022-11-05T08:36:49.361Z,61.41
2022-11-05T08:39:17.112Z,61.12
2022-11-05T08:41:43.482Z,61.40
2022-11-05T08:44:09.752Z,61.85
2022-11-05T08:46:41.272Z,61.72
2022-11-05T08:49:08.000Z,61.87
2022-11-05T08:51:34.360Z,62.01
2022-11-05T08:54:00.594Z,61.96
2022-11-05T08:56:26.843Z,62.10
2022-11-05T08:58:53.132Z,61.83
2022-11-05T09:01:19.495Z,62.19
2022-11-05T09:03:45.819Z,62.42
2022-11-05T09:06:12.071Z,62.27
2022-11-05T09:08:38.316Z,62.07
2022-11-05T09:11:04.605Z,61.84
2022-11-05T09:13:30.843Z,62.45
2022-11-05T09:15:57.099Z,62.45
2022-11-05T09:18:23.370Z,62.37
2022-11-05T09:20:49.623Z,61.91
2022-11-05T09:23:15.922Z,62.38
2022-11-05T09:25:42.179Z,62.11
2022-11-05T09:28:08.413Z,62.60
2022-11-05T09:30:34.645Z,62.41
2022-11-05T09:33:00.892Z,62.18
2022-11-05T09:35:27.132Z,62.20
2022-11-05T09:37:58.205Z,62.17
2022-11-05T09:40:26.945Z,62.05
2022-11-05T09:42:53.240Z,62.20
2022-11-05T09:45:19.479Z,62.17
2022-11-05T09:47:45.725Z,62.09
2022-11-05T09:50:11.972Z,61.85
2022-11-05T09:52:38.220Z,61.47
2022-11-05T09:55:04.504Z,61.97
2022-11-05T09:57:30.742Z,61.82
2022-11-05T09:59:57.189Z,61.71
2022-11-05T10:02:23.499Z,61.18
2022-11-05T10:04:49.866Z,61.36
2022-11-05T10:07:16.160Z,61.15
2022-11-05T10:09:42.421Z,61.12
2022-11-05T10:12:08.670Z,61.26
2022-11-05T10:14:34.917Z,61.77
2022-11-05T10:17:01.176Z,60.99
2022-11-05T10:19:27.466Z,60.60
2022-11-05T10:22:06.248Z,60.74
2022-11-05T10:24:33.105Z,60.41
2022-11-05T10:26:59.355Z,60.18
2022-11-05T10:29:25.592Z,59.27
2022-11-05T10:31:51.843Z,59.35
2022-11-05T10:34:18.090Z,58.90
2022-11-05T10:36:44.351Z,58.57
2022-11-05T10:39:10.594Z,58.70
2022-11-05T10:41:36.841Z,59.02
2022-11-05T10:44:03.125Z,58.43
2022-11-05T10:46:29.374Z,58.76
2022-11-05T10:48:55.623Z,58.48
2022-11-05T10:51:21.872Z,58.70
2022-11-05T10:53:48.142Z,57.62
2022-11-05T10:56:14.387Z,56.23
2022-11-05T10:58:40.627Z,57.17
2022-11-05T11:01:06.917Z,55.13
2022-11-05T11:03:33.240Z,53.42
2022-11-05T11:05:59.500Z,51.90
2022-11-05T11:08:25.752Z,53.45
2022-11-05T11:10:52.002Z,54.19
2022-11-05T11:13:18.246Z,50.29
2022-11-05T11:15:46.043Z,51.40
2022-11-05T11:18:12.295Z,49.52
2022-11-05T11:20:38.528Z,47.94
2022-11-05T11:23:04.778Z,46.88
2022-11-05T11:25:31.028Z,47.82
2022-11-05T11:27:57.285Z,47.43
2022-11-05T11:30:23.532Z,47.32
2022-11-05T11:32:49.784Z,49.25
2022-11-05T11:35:16.039Z,49.56
2022-11-05T11:37:42.354Z,50.27
2022-11-05T11:40:10.107Z,48.60
2022-11-05T11:42:36.530Z,48.43
2022-11-05T11:45:02.850Z,50.83
2022-11-05T11:47:29.105Z,48.93
2022-11-05T11:49:55.377Z,49.08
2022-11-05T11:52:21.627Z,48.60
2022-11-05T11:54:47.891Z,48.64
2022-11-05T11:57:15.228Z,48.17
2022-11-05T12:00:07.295Z,48.80
2022-11-05T12:02:27.867Z,48.46
2022-11-05T12:04:54.187Z,49.10
2022-11-05T12:07:20.434Z,48.08
2022-11-05T12:09:46.682Z,48.27
2022-11-05T12:12:12.923Z,48.53
2022-11-05T12:14:42.393Z,48.55
2022-11-05T12:17:12.394Z,49.41
2022-11-05T12:19:38.641Z,48.50
2022-11-05T12:22:04.896Z,48.58
2022-11-05T12:24:31.228Z,47.80
2022-11-05T12:26:57.477Z,47.11
2022-11-05T12:29:23.724Z,47.81
2022-11-05T12:31:49.992Z,48.57
2022-11-05T12:34:16.231Z,47.29
2022-11-05T12:36:42.480Z,46.65
2022-11-05T12:39:08.745Z,47.54
2022-11-05T12:41:34.988Z,47.67
2022-11-05T12:44:01.232Z,47.13
2022-11-05T12:46:27.477Z,47.66
2022-11-05T12:48:53.758Z,46.46
2022-11-05T12:51:20.004Z,48.27
2022-11-05T12:53:46.245Z,48.42
2022-11-05T12:56:12.488Z,47.64
2022-11-05T12:58:38.833Z,46.42
2022-11-05T13:01:05.127Z,46.66
2022-11-05T13:03:31.378Z,47.01
2022-11-05T13:06:02.900Z,47.15
2022-11-05T13:08:31.841Z,47.06
2022-11-05T13:10:58.083Z,46.86
2022-11-05T13:13:24.346Z,46.34
2022-11-05T13:15:50.590Z,47.07
2022-11-05T13:18:16.837Z,46.51
2022-11-05T13:20:43.106Z,47.53
2022-11-05T13:23:09.659Z,46.92
2022-11-05T13:25:36.149Z,46.98
2022-11-05T13:28:02.390Z,48.01
2022-11-05T13:30:28.643Z,47.82
2022-11-05T13:32:54.894Z,47.20
2022-11-05T13:35:21.167Z,47.35
2022-11-05T13:37:47.466Z,46.94
2022-11-05T13:40:13.720Z,48.35
2022-11-05T13:42:39.986Z,47.51
2022-11-05T13:45:06.246Z,48.44
2022-11-05T13:47:32.493Z,48.68
2022-11-05T13:49:58.834Z,46.69
2022-11-05T13:52:25.103Z,46.53
2022-11-05T13:54:51.528Z,45.34
2022-11-05T13:57:17.800Z,46.54
2022-11-05T13:59:44.105Z,46.83
2022-11-05T14:02:10.564Z,47.09
2022-11-05T14:04:36.973Z,47.78
2022-11-05T14:07:03.228Z,47.92
2022-11-05T14:09:29.480Z,48.05
2022-11-05T14:11:55.714Z,46.57
2022-11-05T14:14:21.966Z,47.61
2022-11-05T14:16:48.213Z,46.33
2022-11-05T14:19:14.486Z,48.39
2022-11-05T14:21:40.752Z,48.21
2022-11-05T14:24:07.006Z,46.21
2022-11-05T14:26:33.330Z,46.38
2022-11-05T14:28:59.605Z,46.70
2022-11-05T14:31:47.436Z,47.15
2022-11-05T14:34:12.080Z,45.26
2022-11-05T14:36:38.322Z,45.76
2022-11-05T14:39:04.663Z,45.17
2022-11-05T14:41:30.925Z,46.09
2022-11-05T14:43:57.165Z,45.14
2022-11-05T14:46:23.402Z,46.95
2022-11-05T14:48:49.633Z,46.07
2022-11-05T14:51:15.865Z,44.67
2022-11-05T14:53:42.108Z,46.31
2022-11-05T14:56:08.336Z,46.87
2022-11-05T14:58:34.604Z,45.88
2022-11-05T15:01:00.945Z,46.83
2022-11-05T15:03:27.309Z,47.63
2022-11-05T15:05:53.605Z,48.06
2022-11-05T15:08:19.856Z,47.90
2022-11-05T15:10:46.120Z,48.50
2022-11-05T15:13:12.716Z,46.70
2022-11-05T15:15:39.167Z,48.59
2022-11-05T15:18:05.408Z,47.84
2022-11-05T15:20:37.182Z,47.94
2022-11-05T15:23:06.034Z,47.47
2022-11-05T15:25:32.292Z,48.24
2022-11-05T15:27:58.649Z,47.70
2022-11-05T15:30:25.244Z,47.91
2022-11-05T15:32:51.501Z,48.47
2022-11-05T15:35:17.875Z,47.82
2022-11-05T15:37:48.501Z,48.28
2022-11-05T15:40:18.750Z,48.46
2022-11-05T15:42:45.036Z,48.76
2022-11-05T15:45:11.272Z,48.86
2022-11-05T15:47:37.516Z,48.41
2022-11-05T15:50:03.809Z,48.74
2022-11-05T15:52:30.174Z,47.85
2022-11-05T15:54:56.434Z,47.73
2022-11-05T15:57:22.677Z,48.16
2022-11-05T15:59:48.999Z,48.57
2022-11-05T16:02:15.350Z,48.04
2022-11-05T16:04:41.641Z,48.49
2022-11-05T16:07:07.896Z,48.75
2022-11-05T16:09:34.144Z,49.23
2022-11-05T16:12:00.377Z,49.25
2022-11-05T16:14:26.712Z,49.72
2022-11-05T16:16:52.944Z,50.72
2022-11-05T16:19:19.204Z,50.48
2022-11-05T16:21:45.472Z,50.65
2022-11-05T16:24:11.709Z,50.82
2022-11-05T16:29:24.166Z,51.33
2022-11-05T16:31:50.413Z,51.01
2022-11-05T16:34:16.673Z,51.71
2022-11-05T16:36:42.932Z,51.33
2022-11-05T16:39:09.177Z,51.07
2022-11-05T16:41:35.430Z,51.15
2022-11-05T16:44:01.683Z,50.99
2022-11-05T16:46:27.963Z,50.82
2022-11-05T16:48:54.243Z,51.34
2022-11-05T16:51:26.243Z,51.03
2022-11-05T16:53:53.674Z,51.46
2022-11-05T16:56:19.928Z,51.49
2022-11-05T16:58:46.166Z,51.66
2022-11-05T17:01:12.458Z,52.10
2022-11-05T17:03:38.768Z,52.12
2022-11-05T17:06:05.014Z,51.95
2022-11-05T17:08:31.291Z,51.92
2022-11-05T17:10:57.568Z,52.34
2022-11-05T17:13:23.844Z,52.56
2022-11-05T17:15:50.097Z,52.37
2022-11-05T17:18:18.870Z,52.55
2022-11-05T17:20:45.522Z,52.67
2022-11-05T17:23:12.189Z,52.91
2022-11-05T17:25:38.644Z,52.89
2022-11-05T17:28:04.915Z,53.04
2022-11-05T17:30:31.184Z,53.49
2022-11-05T17:32:57.539Z,53.89
2022-11-05T17:35:23.809Z,53.88
2022-11-05T17:37:50.103Z,53.56
2022-11-05T17:40:16.373Z,53.74
2022-11-05T17:42:42.604Z,53.33
2022-11-05T17:45:08.850Z,53.09
2022-11-05T17:47:35.089Z,53.29
2022-11-05T17:50:01.365Z,53.41
2022-11-05T17:52:27.624Z,53.96
2022-11-05T17:54:53.892Z,53.85
2022-11-05T17:57:20.230Z,54.68
2022-11-05T17:59:46.473Z,54.40
2022-11-05T18:02:12.840Z,54.56
2022-11-05T18:04:39.267Z,54.89
2022-11-05T18:07:05.528Z,54.90
2022-11-05T18:09:31.772Z,54.72
2022-11-05T18:11:58.030Z,54.78
2022-11-05T18:14:24.395Z,55.17
2022-11-05T18:16:50.645Z,55.39
2022-11-05T18:19:16.894Z,55.22
2022-11-05T18:21:43.134Z,55.87
2022-11-05T18:24:09.357Z,55.62
2022-11-05T18:26:35.592Z,55.93
2022-11-05T18:29:01.835Z,55.21
2022-11-05T18:31:28.094Z,55.89
2022-11-05T18:33:54.397Z,55.58
2022-11-05T18:36:20.652Z,55.99
2022-11-05T18:38:46.906Z,56.17
2022-11-05T18:41:13.148Z,56.15
2022-11-05T18:43:39.384Z,56.34
2022-11-05T18:46:05.639Z,56.67
2022-11-05T18:48:31.868Z,56.69
2022-11-05T18:51:01.867Z,56.82
2022-11-05T18:53:28.449Z,56.79
2022-11-05T18:55:54.718Z,56.88
2022-11-05T18:58:20.973Z,56.57
2022-11-05T19:00:47.218Z,56.81
2022-11-05T19:03:13.492Z,56.97
2022-11-05T19:05:39.836Z,57.11
2022-11-05T19:08:06.084Z,57.22
2022-11-05T19:10:32.339Z,57.36
2022-11-05T19:12:58.615Z,57.48
2022-11-05T19:15:24.920Z,57.44
2022-11-05T19:17:51.150Z,57.80
2022-11-05T19:20:17.392Z,56.89
2022-11-05T19:22:43.671Z,57.54
2022-11-05T19:25:09.923Z,57.29
2022-11-05T19:27:36.190Z,56.96
2022-11-05T19:30:02.471Z,56.92
2022-11-05T19:32:28.754Z,57.42
2022-11-05T19:34:55.018Z,57.29
2022-11-05T19:37:21.268Z,57.72
2022-11-05T19:39:47.513Z,58.17
2022-11-05T19:42:13.748Z,58.07
2022-11-05T19:44:40.036Z,57.43
2022-11-05T19:47:06.263Z,58.20
2022-11-05T19:49:32.512Z,58.41
2022-11-05T19:51:58.762Z,57.88
2022-11-05T19:54:25.031Z,57.70
2022-11-05T19:56:51.267Z,58.07
2022-11-05T19:59:17.511Z,57.84
2022-11-05T20:01:43.885Z,58.45
2022-11-05T20:04:10.334Z,58.49
2022-11-05T20:06:36.603Z,58.36
2022-11-05T20:11:49.095Z,58.46
2022-11-05T20:14:15.344Z,58.45
2022-11-05T20:16:41.595Z,58.43
2022-11-05T20:19:07.843Z,58.96
2022-11-05T20:21:34.095Z,58.25
2022-11-05T20:24:00.358Z,57.64
2022-11-05T20:26:26.619Z,58.03
2022-11-05T20:28:52.868Z,58.19
2022-11-05T20:31:19.100Z,58.36
2022-11-05T20:33:45.330Z,58.97
2022-11-05T20:36:11.579Z,58.53
2022-11-05T20:38:37.820Z,58.42
2022-11-05T20:41:04.065Z,58.06
2022-11-05T20:43:30.674Z,58.06
2022-11-05T20:45:56.967Z,58.33
2022-11-05T20:48:23.209Z,57.97
2022-11-05T20:50:49.473Z,58.79
2022-11-05T20:53:15.737Z,58.28
2022-11-05T20:55:41.979Z,57.91
2022-11-05T20:58:08.231Z,57.27
2022-11-05T21:00:34.469Z,57.31
2022-11-05T21:03:00.882Z,58.03
2022-11-05T21:05:31.243Z,57.94
2022-11-05T21:08:00.591Z,58.35
2022-11-05T21:10:26.851Z,58.07
2022-11-05T21:12:53.122Z,58.43
2022-11-05T21:15:19.358Z,58.50
2022-11-05T21:17:45.601Z,58.42
2022-11-05T21:20:11.861Z,58.88
2022-11-05T21:22:38.116Z,58.27
2022-11-05T21:25:04.374Z,58.76
2022-11-05T21:27:30.630Z,58.41
2022-11-05T21:29:56.864Z,59.01
2022-11-05T21:32:23.143Z,58.86
2022-11-05T21:34:49.398Z,59.05
2022-11-05T21:37:15.649Z,58.98
2022-11-05T21:39:41.881Z,59.24
2022-11-05T21:42:08.168Z,59.65
2022-11-05T21:44:34.411Z,59.60
2022-11-05T21:47:00.679Z,59.08
2022-11-05T21:49:26.912Z,59.33
2022-11-05T21:51:53.162Z,59.30
2022-11-05T21:54:19.403Z,59.11
2022-11-05T21:56:45.656Z,59.15
2022-11-05T21:59:11.895Z,59.61
2022-11-05T22:01:38.298Z,59.57
2022-11-05T22:04:04.579Z,59.79
2022-11-05T22:06:30.831Z,59.65
2022-11-05T22:08:57.199Z,59.22
2022-11-05T22:11:23.467Z,59.19
2022-11-05T22:13:49.717Z,58.86
2022-11-05T22:16:15.990Z,59.32
2022-11-05T22:18:42.227Z,59.18
2022-11-05T22:21:08.468Z,59.20
2022-11-05T22:23:34.801Z,59.46
2022-11-05T22:26:01.050Z,59.12
2022-11-05T22:28:27.302Z,58.61
2022-11-05T22:30:53.554Z,58.65
2022-11-05T22:33:19.803Z,58.76
2022-11-05T22:35:46.055Z,58.80
2022-11-05T22:38:12.644Z,58.82
2022-11-05T22:40:39.125Z,58.55
2022-11-05T22:43:05.393Z,58.86
2022-11-05T22:45:31.655Z,58.63
2022-11-05T22:47:57.901Z,58.52
2022-11-05T22:50:24.233Z,58.67
2022-11-05T22:52:50.464Z,58.54
2022-11-05T22:55:16.744Z,58.62
2022-11-05T22:57:42.984Z,59.06
2022-11-05T23:00:09.294Z,58.62
2022-11-05T23:02:35.644Z,58.83
2022-11-05T23:05:01.955Z,58.66
2022-11-05T23:07:28.214Z,58.76
2022-11-05T23:09:54.512Z,58.60
2022-11-05T23:12:20.759Z,58.43
2022-11-05T23:14:46.995Z,58.77
2022-11-05T23:17:13.270Z,58.55
2022-11-05T23:19:39.511Z,58.65
2022-11-05T23:22:05.751Z,58.58
2022-11-05T23:24:31.990Z,58.70
2022-11-05T23:26:58.270Z,59.47
2022-11-05T23:29:24.513Z,59.72
2022-11-05T23:31:50.761Z,59.65
2022-11-05T23:34:17.015Z,59.52
2022-11-05T23:36:43.272Z,59.70
2022-11-05T23:39:09.551Z,60.36
2022-11-05T23:41:35.807Z,60.26
2022-11-05T23:44:02.063Z,60.06
2022-11-05T23:46:28.304Z,60.13
2022-11-05T23:48:54.671Z,59.96
2022-11-05T23:51:20.921Z,59.99
2022-11-05T23:53:47.168Z,59.99
2022-11-05T23:56:13.424Z,60.44
2022-11-05T23:58:39.692Z,59.95
